createdAt,value
2023-05-01T00:00:20.727Z,58.29
2023-05-01T00:02:47.456Z,58.43
2023-05-01T00:05:14.085Z,57.89
2023-05-01T00:07:40.716Z,57.83
2023-05-01T00:10:07.824Z,58.25
2023-05-01T00:12:34.382Z,58.23
2023-05-01T00:15:00.981Z,58.07
2023-05-01T00:17:28.310Z,58.02
2023-05-01T00:19:55.207Z,57.85
2023-05-01T00:22:22.033Z,57.40
2023-05-01T00:24:50.060Z,56.74
2023-05-01T00:27:16.703Z,57.02
2023-05-01T00:29:43.350Z,57.15
2023-05-01T00:32:10.509Z,56.48
2023-05-01T00:34:37.259Z,56.52
2023-05-01T00:37:03.947Z,56.17
2023-05-01T00:39:30.566Z,56.17
2023-05-01T00:41:57.624Z,56.17
2023-05-01T00:44:24.291Z,56.09
2023-05-01T00:46:51.198Z,55.42
2023-05-01T00:49:18.060Z,55.70
2023-05-01T00:51:49.255Z,55.71
2023-05-01T00:54:15.902Z,55.79
2023-05-01T00:56:42.868Z,55.94
2023-05-01T00:59:09.462Z,56.00
2023-05-01T01:01:36.104Z,56.07
2023-05-01T01:04:02.754Z,56.50
2023-05-01T01:07:03.807Z,56.33
2023-05-01T01:09:50.294Z,57.31
2023-05-01T01:12:22.813Z,57.54
2023-05-01T01:15:35.780Z,57.97
2023-05-01T01:18:10.054Z,58.04
2023-05-01T01:21:01.589Z,58.10
2023-05-01T01:24:03.432Z,58.12
2023-05-01T01:27:11.300Z,58.48
2023-05-01T01:29:59.390Z,58.56
2023-05-01T01:32:44.724Z,58.02
2023-05-01T01:35:19.598Z,58.69
2023-05-01T01:37:57.291Z,58.09
2023-05-01T01:40:29.170Z,58.19
2023-05-01T01:43:02.355Z,58.42
2023-05-01T01:45:41.331Z,57.66
2023-05-01T01:48:14.990Z,58.39
2023-05-01T01:50:43.867Z,58.46
2023-05-01T01:53:13.087Z,58.04
2023-05-01T01:55:42.160Z,58.64
2023-05-01T01:58:10.691Z,58.54
2023-05-01T02:00:39.167Z,59.09
2023-05-01T02:03:06.623Z,59.05
2023-05-01T02:05:34.895Z,58.88
2023-05-01T02:08:04.268Z,59.26
2023-05-01T02:10:32.725Z,58.81
2023-05-01T02:13:00.496Z,58.75
2023-05-01T02:15:28.179Z,58.55
2023-05-01T02:17:55.114Z,58.45
2023-05-01T02:20:22.356Z,58.61
2023-05-01T02:22:53.318Z,58.59
2023-05-01T02:25:20.091Z,58.21
2023-05-01T02:28:08.810Z,58.82
2023-05-01T02:30:36.007Z,59.86
2023-05-01T02:33:03.242Z,60.17
2023-05-01T02:35:29.909Z,60.19
2023-05-01T02:37:56.520Z,60.70
2023-05-01T02:40:24.150Z,61.00
2023-05-01T02:42:53.127Z,60.82
2023-05-01T02:45:22.174Z,61.46
2023-05-01T02:47:53.863Z,61.07
2023-05-01T02:50:22.281Z,61.27
2023-05-01T02:52:50.083Z,61.04
2023-05-01T02:55:17.476Z,61.00
2023-05-01T02:57:44.050Z,61.27
2023-05-01T03:00:13.832Z,59.84
2023-05-01T03:02:41.343Z,60.09
2023-05-01T03:05:08.722Z,59.66
2023-05-01T03:07:35.538Z,59.43
2023-05-01T03:10:07.893Z,58.58
2023-05-01T03:12:34.578Z,59.13
2023-05-01T03:15:01.153Z,58.81
2023-05-01T03:17:27.831Z,58.43
2023-05-01T03:19:54.701Z,58.12
2023-05-01T03:22:21.772Z,57.05
2023-05-01T03:24:48.612Z,57.07
2023-05-01T03:27:15.161Z,56.89
2023-05-01T03:29:41.825Z,56.45
2023-05-01T03:32:08.526Z,55.78
2023-05-01T03:34:35.848Z,55.56
2023-05-01T03:37:02.528Z,55.55
2023-05-01T03:39:29.139Z,56.09
2023-05-01T03:41:55.704Z,55.09
2023-05-01T03:44:22.388Z,54.33
2023-05-01T03:46:48.984Z,53.72
2023-05-01T03:49:15.665Z,53.84
2023-05-01T03:51:42.288Z,53.65
2023-05-01T03:54:08.995Z,53.62
2023-05-01T03:56:36.626Z,53.16
2023-05-01T03:59:03.254Z,52.86
2023-05-01T04:01:30.107Z,51.17
2023-05-01T04:03:56.747Z,49.63
2023-05-01T04:06:23.808Z,49.28
2023-05-01T04:08:50.449Z,48.49
2023-05-01T04:11:17.024Z,48.56
2023-05-01T04:13:43.640Z,48.09
2023-05-01T04:16:10.299Z,47.99
2023-05-01T04:18:36.907Z,47.71
2023-05-01T04:21:03.773Z,47.65
2023-05-01T04:23:30.364Z,47.08
2023-05-01T04:25:56.997Z,47.20
2023-05-01T04:28:23.594Z,47.63
2023-05-01T04:30:50.428Z,48.09
2023-05-01T04:33:17.019Z,47.86
2023-05-01T04:35:43.833Z,48.22
2023-05-01T04:38:13.460Z,48.78
2023-05-01T04:40:40.096Z,48.64
2023-05-01T04:43:06.875Z,49.77
2023-05-01T04:45:33.455Z,49.40
2023-05-01T04:48:00.159Z,49.98
2023-05-01T04:50:26.960Z,49.71
2023-05-01T04:52:53.934Z,49.80
2023-05-01T04:55:20.642Z,49.04
2023-05-01T04:57:47.460Z,48.77
2023-05-01T05:00:14.963Z,48.10
2023-05-01T05:02:41.783Z,48.56
2023-05-01T05:05:08.845Z,48.59
2023-05-01T05:07:35.409Z,47.53
2023-05-01T05:10:02.155Z,47.47
2023-05-01T05:12:28.832Z,47.51
2023-05-01T05:14:55.542Z,47.84
2023-05-01T05:17:22.164Z,47.88
2023-05-01T05:19:48.739Z,48.02
2023-05-01T05:22:15.764Z,47.91
2023-05-01T05:24:47.134Z,48.29
2023-05-01T05:27:13.810Z,48.54
2023-05-01T05:29:40.425Z,48.16
2023-05-01T05:32:07.131Z,48.09
2023-05-01T05:34:33.887Z,48.09
2023-05-01T05:37:00.514Z,49.50
2023-05-01T05:39:27.199Z,47.82
2023-05-01T05:41:54.058Z,47.83
2023-05-01T05:44:20.862Z,48.09
2023-05-01T05:46:47.665Z,48.17
2023-05-01T05:49:14.398Z,48.15
2023-05-01T05:51:41.110Z,48.38
2023-05-01T05:54:07.770Z,48.33
2023-05-01T05:56:34.374Z,48.45
2023-05-01T05:59:03.661Z,48.46
2023-05-01T06:01:30.543Z,49.07
2023-05-01T06:03:57.214Z,49.20
2023-05-01T06:06:24.422Z,48.69
2023-05-01T06:08:51.056Z,48.67
2023-05-01T06:11:17.835Z,49.45
2023-05-01T06:13:44.397Z,48.91
2023-05-01T06:16:11.137Z,49.51
2023-05-01T06:18:38.465Z,48.64
2023-05-01T06:21:05.075Z,48.53
2023-05-01T06:23:31.942Z,49.18
2023-05-01T06:25:58.960Z,49.01
2023-05-01T06:28:25.688Z,49.14
2023-05-01T06:30:52.491Z,49.39
2023-05-01T06:33:19.321Z,49.38
2023-05-01T06:35:46.052Z,49.40
2023-05-01T06:38:12.599Z,49.41
2023-05-01T06:40:39.155Z,49.04
2023-05-01T06:43:05.950Z,49.33
2023-05-01T06:45:32.730Z,49.24
2023-05-01T06:47:59.380Z,49.22
2023-05-01T06:50:25.971Z,48.79
2023-05-01T06:52:52.583Z,49.12
2023-05-01T06:55:19.571Z,49.02
2023-05-01T06:57:46.210Z,48.68
2023-05-01T07:00:13.863Z,49.26
2023-05-01T07:02:41.067Z,49.31
2023-05-01T07:05:08.016Z,49.31
2023-05-01T07:07:35.076Z,48.97
2023-05-01T07:10:02.377Z,48.42
2023-05-01T07:12:29.668Z,47.90
2023-05-01T07:14:57.068Z,48.11
2023-05-01T07:17:23.753Z,47.77
2023-05-01T07:19:50.702Z,47.88
2023-05-01T07:22:17.346Z,47.73
2023-05-01T07:24:44.306Z,48.02
2023-05-01T07:27:11.034Z,48.55
2023-05-01T07:29:40.688Z,46.79
2023-05-01T07:32:07.645Z,46.73
2023-05-01T07:34:34.963Z,47.10
2023-05-01T07:37:01.892Z,45.65
2023-05-01T07:39:28.708Z,45.59
2023-05-01T07:41:57.657Z,45.60
2023-05-01T07:44:24.310Z,45.83
2023-05-01T07:46:50.926Z,45.61
2023-05-01T07:49:17.532Z,45.84
2023-05-01T07:51:44.787Z,45.46
2023-05-01T07:54:12.018Z,45.40
2023-05-01T07:56:39.740Z,45.98
2023-05-01T07:59:06.310Z,45.53
2023-05-01T08:01:34.985Z,45.50
2023-05-01T08:04:01.665Z,45.14
2023-05-01T08:06:28.545Z,45.03
2023-05-01T08:08:55.271Z,44.92
2023-05-01T08:11:22.070Z,45.02
2023-05-01T08:13:48.757Z,44.20
2023-05-01T08:16:15.451Z,43.97
2023-05-01T08:18:42.108Z,44.04
2023-05-01T08:21:08.695Z,44.11
2023-05-01T08:23:35.446Z,44.02
2023-05-01T08:26:02.183Z,41.12
2023-05-01T08:28:29.080Z,40.88
2023-05-01T08:30:55.860Z,39.57
2023-05-01T08:33:22.618Z,40.77
2023-05-01T08:35:49.462Z,38.99
2023-05-01T08:38:16.066Z,38.77
2023-05-01T08:40:51.074Z,39.45
2023-05-01T08:43:18.158Z,40.49
2023-05-01T08:45:47.486Z,39.47
2023-05-01T08:48:18.839Z,39.77
2023-05-01T08:50:47.426Z,39.37
2023-05-01T08:53:15.772Z,38.99
2023-05-01T08:55:44.022Z,38.96
2023-05-01T08:58:15.369Z,39.11
2023-05-01T09:00:42.882Z,39.69
2023-05-01T09:03:13.457Z,39.78
2023-05-01T09:05:40.565Z,39.66
2023-05-01T09:08:07.216Z,38.77
2023-05-01T09:10:38.040Z,39.59
2023-05-01T09:13:07.270Z,38.48
2023-05-01T09:15:33.877Z,38.13
2023-05-01T09:18:03.624Z,38.09
2023-05-01T09:20:32.066Z,37.36
2023-05-01T09:23:03.217Z,37.88
2023-05-01T09:25:33.898Z,36.75
2023-05-01T09:28:00.619Z,38.42
2023-05-01T09:30:38.195Z,37.11
2023-05-01T09:33:11.894Z,36.85
2023-05-01T09:35:59.833Z,36.30
2023-05-01T09:38:29.069Z,36.08
2023-05-01T09:41:03.633Z,36.38
2023-05-01T09:43:31.607Z,36.08
2023-05-01T09:46:01.850Z,36.12
2023-05-01T09:48:29.266Z,37.13
2023-05-01T09:50:55.978Z,36.83
2023-05-01T09:53:40.241Z,37.08
2023-05-01T09:56:07.235Z,37.15
2023-05-01T09:58:34.016Z,37.28
2023-05-01T10:01:00.894Z,37.68
2023-05-01T10:03:28.923Z,37.20
2023-05-01T10:05:57.841Z,36.68
2023-05-01T10:08:24.494Z,37.10
2023-05-01T10:11:05.331Z,37.39
2023-05-01T10:13:32.189Z,36.93
2023-05-01T10:16:01.405Z,37.00
2023-05-01T10:18:30.627Z,37.51
2023-05-01T10:20:57.503Z,36.70
2023-05-01T10:23:25.487Z,38.51
2023-05-01T10:25:53.823Z,38.00
2023-05-01T10:28:21.950Z,37.90
2023-05-01T10:30:49.240Z,38.96
2023-05-01T10:33:16.497Z,38.29
2023-05-01T10:35:48.255Z,38.19
2023-05-01T10:38:24.123Z,38.12
2023-05-01T10:40:51.672Z,37.50
2023-05-01T10:43:21.252Z,37.89
2023-05-01T10:45:50.103Z,38.34
2023-05-01T10:48:56.030Z,37.58
2023-05-01T10:51:26.634Z,36.76
2023-05-01T10:54:12.564Z,36.67
2023-05-01T10:56:39.079Z,37.26
2023-05-01T10:59:06.442Z,37.37
2023-05-01T11:01:45.375Z,37.88
2023-05-01T11:04:24.708Z,38.01
2023-05-01T11:06:57.698Z,37.09
2023-05-01T11:09:42.704Z,36.94
2023-05-01T11:12:14.667Z,37.87
2023-05-01T11:14:54.129Z,37.04
2023-05-01T11:17:40.001Z,37.58
2023-05-01T11:20:10.450Z,37.14
2023-05-01T11:22:39.874Z,37.61
2023-05-01T11:25:28.078Z,37.25
2023-05-01T11:27:56.282Z,37.65
2023-05-01T11:30:23.064Z,38.70
2023-05-01T11:32:51.319Z,38.47
2023-05-01T11:35:28.591Z,37.86
2023-05-01T11:37:57.938Z,38.55
2023-05-01T11:40:32.645Z,38.61
2023-05-01T11:43:07.138Z,37.64
2023-05-01T11:45:35.811Z,38.31
2023-05-01T11:48:04.203Z,38.52
2023-05-01T11:50:40.450Z,38.59
2023-05-01T11:53:17.486Z,38.82
2023-05-01T11:55:49.657Z,37.67
2023-05-01T11:58:17.126Z,37.20
2023-05-01T12:00:44.077Z,36.59
2023-05-01T12:03:14.683Z,36.89
2023-05-01T12:05:43.604Z,36.82
2023-05-01T12:08:15.002Z,36.50
2023-05-01T12:10:43.628Z,36.58
2023-05-01T12:13:12.900Z,37.04
2023-05-01T12:15:42.428Z,37.05
2023-05-01T12:18:10.244Z,36.71
2023-05-01T12:20:48.782Z,37.05
2023-05-01T12:23:16.757Z,37.16
2023-05-01T12:25:45.039Z,37.64
2023-05-01T12:28:16.860Z,38.17
2023-05-01T12:30:45.969Z,38.00
2023-05-01T12:33:21.338Z,38.52
2023-05-01T12:35:50.693Z,38.88
2023-05-01T12:38:22.253Z,38.83
2023-05-01T12:40:52.922Z,38.88
2023-05-01T12:43:29.767Z,39.10
2023-05-01T12:45:56.957Z,40.00
2023-05-01T12:48:24.792Z,41.01
2023-05-01T12:50:55.251Z,42.51
2023-05-01T12:53:23.437Z,42.43
2023-05-01T12:55:52.858Z,42.70
2023-05-01T12:58:19.645Z,43.84
2023-05-01T13:00:49.470Z,44.12
2023-05-01T13:03:25.821Z,44.04
2023-05-01T13:06:01.702Z,44.53
2023-05-01T13:08:41.307Z,43.83
2023-05-01T13:11:17.925Z,43.65
2023-05-01T13:13:45.966Z,43.47
2023-05-01T13:16:16.691Z,44.18
2023-05-01T13:18:51.383Z,43.75
2023-05-01T13:21:21.501Z,43.70
2023-05-01T13:23:55.233Z,43.83
2023-05-01T13:26:29.182Z,43.17
2023-05-01T13:28:57.238Z,42.21
2023-05-01T13:31:24.529Z,43.31
2023-05-01T13:33:53.757Z,43.89
2023-05-01T13:36:25.793Z,44.25
2023-05-01T13:38:56.797Z,44.21
2023-05-01T13:41:26.008Z,44.10
2023-05-01T13:43:54.234Z,43.22
2023-05-01T13:46:22.686Z,43.28
2023-05-01T13:48:49.576Z,42.89
2023-05-01T13:51:24.348Z,43.46
2023-05-01T13:53:53.657Z,43.73
2023-05-01T13:56:21.757Z,43.67
2023-05-01T13:58:50.277Z,44.54
2023-05-01T14:01:19.223Z,43.78
2023-05-01T14:03:46.568Z,44.86
2023-05-01T14:06:16.712Z,43.66
2023-05-01T14:08:44.702Z,43.04
2023-05-01T14:11:12.497Z,43.49
2023-05-01T14:13:46.794Z,43.93
2023-05-01T14:16:25.103Z,44.11
2023-05-01T14:18:55.517Z,43.25
2023-05-01T14:21:24.598Z,44.04
2023-05-01T14:23:55.343Z,45.45
2023-05-01T14:26:24.820Z,45.23
2023-05-01T14:28:51.706Z,45.32
2023-05-01T14:31:27.548Z,45.52
2023-05-01T14:34:02.154Z,44.13
2023-05-01T14:36:34.210Z,43.76
2023-05-01T14:39:03.985Z,43.26
2023-05-01T14:41:31.720Z,43.34
2023-05-01T14:43:58.616Z,43.87
2023-05-01T14:46:35.980Z,43.75
2023-05-01T14:49:03.359Z,44.39
2023-05-01T14:51:32.293Z,44.23
2023-05-01T14:54:00.048Z,44.85
2023-05-01T14:56:27.262Z,44.99
2023-05-01T14:58:54.120Z,45.17
2023-05-01T15:01:21.528Z,45.79
2023-05-01T15:03:48.252Z,45.84
2023-05-01T15:06:15.043Z,46.12
2023-05-01T15:08:42.407Z,45.19
2023-05-01T15:11:09.713Z,44.74
2023-05-01T15:13:36.961Z,44.46
2023-05-01T15:16:03.961Z,44.03
2023-05-01T15:18:30.882Z,43.38
2023-05-01T15:20:57.458Z,42.62
2023-05-01T15:23:27.281Z,43.01
2023-05-01T15:25:54.061Z,43.83
2023-05-01T15:28:24.721Z,44.45
2023-05-01T15:30:53.107Z,44.99
2023-05-01T15:33:19.739Z,45.16
2023-05-01T15:35:47.318Z,45.80
2023-05-01T15:38:14.044Z,46.80
2023-05-01T15:40:43.418Z,47.44
2023-05-01T15:43:10.038Z,48.93
2023-05-01T15:45:42.535Z,50.50
2023-05-01T15:48:10.125Z,51.66
2023-05-01T15:50:37.086Z,51.88
2023-05-01T15:53:03.766Z,51.64
2023-05-01T15:55:31.203Z,51.24
2023-05-01T15:57:57.876Z,50.92
2023-05-01T16:00:25.489Z,51.02
2023-05-01T16:02:52.237Z,50.98
2023-05-01T16:05:23.097Z,51.09
2023-05-01T16:07:59.591Z,51.30
2023-05-01T16:10:26.228Z,52.38
2023-05-01T16:12:53.691Z,52.65
2023-05-01T16:15:20.575Z,52.15
2023-05-01T16:17:47.911Z,53.04
2023-05-01T16:20:14.872Z,53.03
2023-05-01T16:22:43.181Z,52.99
2023-05-01T16:25:10.654Z,53.76
2023-05-01T16:27:47.476Z,53.08
2023-05-01T16:30:14.584Z,54.54
2023-05-01T16:32:41.751Z,53.27
2023-05-01T16:35:16.883Z,54.00
2023-05-01T16:37:43.624Z,54.31
2023-05-01T16:40:16.963Z,53.98
2023-05-01T16:42:53.547Z,53.97
2023-05-01T16:45:21.407Z,53.53
2023-05-01T16:47:48.167Z,53.21
2023-05-01T16:50:16.436Z,53.38
2023-05-01T16:52:43.123Z,53.34
2023-05-01T16:55:10.180Z,53.88
2023-05-01T16:57:37.677Z,53.84
2023-05-01T17:00:06.271Z,54.17
2023-05-01T17:02:35.353Z,54.73
2023-05-01T17:05:03.372Z,55.75
2023-05-01T17:07:30.098Z,56.50
2023-05-01T17:09:56.825Z,58.16
2023-05-01T17:12:23.636Z,58.89
2023-05-01T17:14:50.953Z,59.27
2023-05-01T17:17:20.794Z,59.58
2023-05-01T17:19:47.597Z,59.35
2023-05-01T17:22:15.261Z,59.22
2023-05-01T17:24:41.881Z,59.43
2023-05-01T17:27:08.701Z,59.71
2023-05-01T17:29:35.438Z,61.10
2023-05-01T17:32:02.341Z,61.85
2023-05-01T17:34:29.172Z,63.46
2023-05-01T17:36:57.891Z,63.29
2023-05-01T17:39:26.213Z,65.80
2023-05-01T17:41:52.852Z,66.79
2023-05-01T17:44:19.504Z,66.71
2023-05-01T17:46:46.118Z,67.30
2023-05-01T17:49:12.772Z,67.62
2023-05-01T17:51:39.390Z,69.80
2023-05-01T17:54:06.487Z,70.32
2023-05-01T17:56:33.168Z,71.11
2023-05-01T17:59:00.040Z,72.41
2023-05-01T18:01:26.737Z,72.56
2023-05-01T18:03:54.979Z,74.09
2023-05-01T18:06:21.737Z,74.06
2023-05-01T18:08:50.123Z,75.69
2023-05-01T18:11:17.005Z,74.78
2023-05-01T18:13:47.437Z,76.28
2023-05-01T18:16:18.626Z,75.92
2023-05-01T18:18:47.027Z,75.15
2023-05-01T18:21:14.630Z,76.10
2023-05-01T18:23:41.217Z,76.82
2023-05-01T18:26:08.214Z,77.39
2023-05-01T18:28:34.829Z,79.17
2023-05-01T18:31:01.547Z,79.76
2023-05-01T18:33:28.286Z,80.63
2023-05-01T18:35:54.889Z,79.36
2023-05-01T18:38:22.706Z,80.70
2023-05-01T18:40:49.277Z,81.62
2023-05-01T18:43:15.994Z,80.95
2023-05-01T18:45:43.011Z,81.93
2023-05-01T18:48:10.008Z,81.74
2023-05-01T18:50:36.637Z,81.32
2023-05-01T18:53:03.443Z,82.20
2023-05-01T18:55:30.113Z,82.35
2023-05-01T18:57:56.953Z,82.11
2023-05-01T19:00:25.963Z,81.84
2023-05-01T19:02:53.070Z,80.58
2023-05-01T19:05:20.008Z,82.34
2023-05-01T19:07:47.017Z,81.85
2023-05-01T19:10:14.264Z,82.22
2023-05-01T19:12:42.430Z,81.08
2023-05-01T19:15:10.434Z,83.35
2023-05-01T19:17:37.709Z,83.90
2023-05-01T19:20:05.520Z,83.31
2023-05-01T19:22:32.149Z,84.21
2023-05-01T19:25:00.125Z,85.04
2023-05-01T19:27:27.356Z,86.06
2023-05-01T19:29:54.728Z,85.23
2023-05-01T19:32:23.145Z,87.22
2023-05-01T19:34:50.181Z,87.52
2023-05-01T19:37:21.641Z,87.74
2023-05-01T19:39:48.243Z,87.63
2023-05-01T19:42:16.361Z,87.97
2023-05-01T19:44:45.944Z,88.43
2023-05-01T19:47:13.239Z,89.21
2023-05-01T19:49:40.171Z,87.59
2023-05-01T19:52:06.925Z,87.83
2023-05-01T19:54:33.618Z,87.06
2023-05-01T19:57:00.722Z,86.23
2023-05-01T19:59:28.360Z,84.84
2023-05-01T20:01:55.251Z,86.71
2023-05-01T20:04:24.575Z,85.61
2023-05-01T20:06:52.105Z,84.90
2023-05-01T20:09:18.978Z,86.16
2023-05-01T20:11:45.672Z,87.36
2023-05-01T20:14:12.528Z,87.28
2023-05-01T20:16:39.266Z,89.80
2023-05-01T20:19:06.529Z,90.83
2023-05-01T20:21:33.241Z,91.92
2023-05-01T20:23:59.810Z,92.98
2023-05-01T20:26:26.769Z,96.25
2023-05-01T20:28:53.720Z,99.05
2023-05-01T20:31:22.611Z,97.41
2023-05-01T20:33:51.102Z,97.87
2023-05-01T20:36:18.101Z,96.91
2023-05-01T20:38:46.296Z,94.98
2023-05-01T20:41:13.488Z,98.10
2023-05-01T20:43:43.187Z,97.25
2023-05-01T20:46:10.077Z,93.14
2023-05-01T20:48:36.889Z,95.11
2023-05-01T20:51:03.607Z,98.15
2023-05-01T20:53:30.417Z,100.00
2023-05-01T20:55:57.020Z,100.00
2023-05-01T20:58:23.607Z,100.00
2023-05-01T21:00:54.084Z,100.00
2023-05-01T21:03:21.082Z,100.00
2023-05-01T21:05:48.027Z,100.00
2023-05-01T21:08:15.266Z,100.00
2023-05-01T21:10:41.991Z,100.00
2023-05-01T21:13:08.611Z,100.00
2023-05-01T21:15:35.268Z,100.00
2023-05-01T21:18:02.076Z,100.00
2023-05-01T21:20:34.052Z,100.00
2023-05-01T21:23:01.359Z,100.00
2023-05-01T21:25:29.988Z,100.00
2023-05-01T21:27:56.747Z,100.00
2023-05-01T21:30:31.273Z,100.00
2023-05-01T21:32:58.430Z,100.00
2023-05-01T21:35:29.927Z,100.00
2023-05-01T21:37:57.302Z,100.00
2023-05-01T21:40:24.144Z,100.00
2023-05-01T21:42:52.955Z,100.00
2023-05-01T21:45:19.956Z,100.00
2023-05-01T21:47:51.228Z,100.00
2023-05-01T21:50:19.803Z,100.00
2023-05-01T21:52:48.280Z,100.00
2023-05-01T21:55:20.831Z,100.00
2023-05-01T21:57:49.839Z,100.00
2023-05-01T22:00:18.079Z,100.00
2023-05-01T22:02:47.129Z,100.00
2023-05-01T22:05:15.567Z,100.00
2023-05-01T22:07:43.782Z,100.00
2023-05-01T22:10:12.226Z,100.00
2023-05-01T22:12:39.753Z,100.00
2023-05-01T22:15:08.376Z,100.00
2023-05-01T22:17:35.228Z,100.00
2023-05-01T22:20:02.556Z,100.00
2023-05-01T22:22:29.324Z,100.00
2023-05-01T22:24:56.099Z,100.00
2023-05-01T22:27:22.789Z,100.00
2023-05-01T22:29:49.562Z,100.00
2023-05-01T22:32:16.278Z,100.00
2023-05-01T22:34:43.106Z,100.00
2023-05-01T22:37:09.986Z,100.00
2023-05-01T22:39:36.824Z,100.00
2023-05-01T22:42:04.014Z,100.00
2023-05-01T22:44:30.927Z,100.00
2023-05-01T22:46:59.385Z,100.00
2023-05-01T22:49:28.065Z,100.00
2023-05-01T22:51:58.047Z,100.00
2023-05-01T22:54:24.986Z,100.00
2023-05-01T22:56:51.793Z,100.00
2023-05-01T22:59:19.060Z,100.00
2023-05-01T23:01:46.211Z,100.00
2023-05-01T23:04:14.067Z,100.00
2023-05-01T23:06:41.105Z,100.00
2023-05-01T23:09:08.459Z,100.00
2023-05-01T23:11:35.434Z,100.00
2023-05-01T23:14:02.051Z,100.00
2023-05-01T23:16:36.488Z,100.00
2023-05-01T23:19:03.690Z,100.00
2023-05-01T23:21:30.977Z,100.00
2023-05-01T23:23:57.631Z,100.00
2023-05-01T23:26:26.011Z,100.00
2023-05-01T23:28:53.296Z,100.00
2023-05-01T23:31:29.262Z,100.00
2023-05-01T23:33:55.981Z,100.00
2023-05-01T23:36:22.853Z,100.00
2023-05-01T23:38:49.746Z,100.00
2023-05-01T23:41:16.604Z,100.00
2023-05-01T23:43:46.457Z,100.00
2023-05-01T23:46:13.417Z,100.00
2023-05-01T23:48:41.011Z,100.00
2023-05-01T23:51:08.019Z,100.00
2023-05-01T23:53:34.594Z,100.00
2023-05-01T23:56:01.307Z,100.00
2023-05-01T23:58:27.932Z,100.00
